Presidente Prudente, Brazil
Current Conditions -  °F | °C
As of 7:00 PM on Monday 20 Oct 2014 (Local Time) from SBDN Reporting Station
Clear Clear  
Wind Chill: 73°   Ceiling: Unl
Heat Index: 73°   Visibility: 6mi
Dew Point: 61°   Wind: 8mph
Humidity: 65%   Direction: 200°SSW
Pressure: 29.97"   Gusts: NA
Location:  22.12°S, 51.39°W
Report Text: SBDN 202200Z 20007KT CAVOK 23/16 Q1015
Loading
Personal Weather Stations






























Interactive Weather Map
Tropical Storm Tracking
New forecast layout! Learn more

10-Day Weather Forecast

Advertisements
Track Severe Weather on mobile